Schleswig Jagel, Germany

10:53 PM CEST on July 26, 2016 (GMT +0200)
Blumenring | | Change Station

Elev 49 ft 54.41 °N, 9.50 °E | Updated 10 minutes ago

Mostly Cloudy
Mostly Cloudy
63.3 °F
Feels Like 63.3 °F
N
0.6
Wind Variable Wind from WSW
Gusts 1.2 mph

Today
High -- | Low -- °F
--% Chance of Precip.
Yesterday
High -- | Low -- °F
Precip. -- in
Pressure 30.12 in
Visibility 6.2 miles
Clouds Mostly Cloudy 7000 ft
Mostly Cloudy 22000 ft
Dew Point 52 °F
Humidity 66%
Rainfall 0.00 in
Snow Depth Not available.
5:23 AM 9:32 PM
Waning Gibbous, 51% visible
METAR ETNH 262020Z 00000KT 9999 BKN070 BKN220 16/13 Q1020 BLU
Pressure 30.12 in
Visibility 6.2 miles
Clouds Mostly Cloudy 7000 ft
Mostly Cloudy 22000 ft
Dew Point 52 °F
Humidity 66%
Rainfall 0.00 in
Snow Depth Not available.
5:23 AM 9:32 PM
Waning Gibbous, 51% visible
METAR ETNH 262020Z 00000KT 9999 BKN070 BKN220 16/13 Q1020 BLU

10-Day Weather Forecast

×

Almanac

Astronomy

Jul. 26, 2016 Rise Set
Actual Time
Civil Twilight
Nautical Twilight
Astronomical Twilight
Moon
Length of Visible Light
Length of Day
Tomorrow will be .
, % of the Moon is Illuminated

Today's Extremes

Country Highs Country Lows

Community

WunderPhotos

Upload Photos

1,927,678 photos uploaded!

WunderBlog® & News

Nearby

Air Quality

  Air Quality AQ Index Pollutant
Not available.

Snow Depth

Station Depth Elevation

Earthquake Activity

City Distance Mag. Time & Date
Minimum magnitude displayed is 2.5.

Coastal Water Temperatures

Place Temperature

Stations

Nearby Weather Stations

Station Location Temp. Windchill Dew Point Humidity Wind Precip. Elev Updated Type